Time;durP1;ratioP1;P1;durP2;ratioP2;P2;SDS_P1;SDS_P2;PMS_P1;PMS_P2;Temp;Humidity;BMP_temperature;BMP_pressure;BME280_temperature;BME280_humidity;BME280_pressure;Samples;Min_cycle;Max_cycle;Signal;HPM_P1;HPM_P2
2023/12/25 00:01:02;;;;;;;1.57;1.40;;;;;;;;;;6307031;22;20369;-87
2023/12/25 00:03:30;;;;;;;1.00;0.90;;;;;;;;;;6282212;22;20381;-87
2023/12/25 00:05:56;;;;;;;1.60;0.90;;;;;;;;;;6280245;22;20456;-87
2023/12/25 00:08:22;;;;;;;1.87;0.70;;;;;;;;;;6306075;22;20409;-88
2023/12/25 00:10:48;;;;;;;1.03;0.93;;;;;;;;;;6305013;22;20372;-87
2023/12/25 00:13:14;;;;;;;1.33;0.73;;;;;;;;;;6280194;22;20387;-86
2023/12/25 00:15:40;;;;;;;0.97;0.83;;;;;;;;;;6279175;22;20443;-88
2023/12/25 00:18:06;;;;;;;1.33;1.10;;;;;;;;;;6279680;22;20380;-88
2023/12/25 00:20:32;;;;;;;0.93;0.70;;;;;;;;;;6305267;22;20368;-87
2023/12/25 00:22:58;;;;;;;0.70;0.60;;;;;;;;;;6279986;22;20562;-87
2023/12/25 00:25:24;;;;;;;3.23;0.97;;;;;;;;;;6279924;22;20392;-88
2023/12/25 00:27:50;;;;;;;0.90;0.73;;;;;;;;;;6280987;22;20379;-86
2023/12/25 00:30:16;;;;;;;0.90;0.70;;;;;;;;;;6304196;22;20365;-87
2023/12/25 00:32:42;;;;;;;0.80;0.70;;;;;;;;;;6281854;22;20384;-87
2023/12/25 00:35:08;;;;;;;1.30;0.80;;;;;;;;;;6280014;22;20372;-86
2023/12/25 00:37:34;;;;;;;3.30;1.10;;;;;;;;;;6279298;22;20459;-88
2023/12/25 00:40:00;;;;;;;2.60;0.80;;;;;;;;;;6282406;22;20429;-87
2023/12/25 00:42:27;;;;;;;1.00;0.90;;;;;;;;;;6280088;22;20420;-87
2023/12/25 00:44:53;;;;;;;3.47;1.40;;;;;;;;;;6282182;22;20915;-87
2023/12/25 00:47:19;;;;;;;0.90;0.70;;;;;;;;;;6279611;22;20411;-87
2023/12/25 00:49:45;;;;;;;1.57;0.90;;;;;;;;;;6282549;22;20384;-88
2023/12/25 00:52:17;;;;;;;2.33;1.33;;;;;;;;;;6303844;22;20368;-88
2023/12/25 00:54:43;;;;;;;1.40;1.10;;;;;;;;;;6282866;22;20364;-88
2023/12/25 00:57:09;;;;;;;1.13;0.80;;;;;;;;;;6307105;22;20471;-87
2023/12/25 00:59:35;;;;;;;0.97;0.80;;;;;;;;;;6281781;22;20372;-88
2023/12/25 01:02:01;;;;;;;0.90;0.80;;;;;;;;;;6279782;22;20501;-87
2023/12/25 01:04:27;;;;;;;4.60;1.10;;;;;;;;;;6282558;22;20396;-87
2023/12/25 01:06:53;;;;;;;3.23;1.23;;;;;;;;;;6281078;22;20364;-87
2023/12/25 01:09:19;;;;;;;1.10;1.00;;;;;;;;;;6306275;22;20375;-87
2023/12/25 01:11:45;;;;;;;1.13;0.80;;;;;;;;;;6305778;22;20380;-88
2023/12/25 01:14:11;;;;;;;0.90;0.80;;;;;;;;;;6283058;22;20391;-87
2023/12/25 01:16:37;;;;;;;1.10;1.00;;;;;;;;;;6280185;22;20385;-87
2023/12/25 01:19:04;;;;;;;1.13;0.83;;;;;;;;;;6281973;22;20376;-86
2023/12/25 01:21:32;;;;;;;1.57;0.87;;;;;;;;;;6282701;22;20485;-86
2023/12/25 01:23:58;;;;;;;1.60;1.00;;;;;;;;;;6284529;22;20606;-86
2023/12/25 01:26:24;;;;;;;1.77;0.80;;;;;;;;;;6282545;22;20411;-86
2023/12/25 01:28:50;;;;;;;1.20;0.93;;;;;;;;;;6283730;22;20380;-87
2023/12/25 01:31:17;;;;;;;1.20;0.80;;;;;;;;;;6282556;22;20388;-84
2023/12/25 01:33:43;;;;;;;1.53;1.00;;;;;;;;;;6309665;22;20738;-88
2023/12/25 01:36:09;;;;;;;1.13;0.70;;;;;;;;;;6309594;22;20372;-87
2023/12/25 01:38:35;;;;;;;1.80;0.80;;;;;;;;;;6282965;22;20417;-89
2023/12/25 01:41:01;;;;;;;1.30;1.20;;;;;;;;;;6309041;22;20371;-87
2023/12/25 01:43:27;;;;;;;0.80;0.70;;;;;;;;;;6281560;22;20741;-86
2023/12/25 01:45:53;;;;;;;1.33;0.87;;;;;;;;;;6280951;22;20433;-86
2023/12/25 01:48:19;;;;;;;1.10;0.80;;;;;;;;;;6306855;22;20368;-88
2023/12/25 01:50:45;;;;;;;0.90;0.70;;;;;;;;;;6280518;22;20372;-88
2023/12/25 01:53:11;;;;;;;1.20;0.73;;;;;;;;;;6281347;22;20384;-87
2023/12/25 01:58:26;;;;;;;1.10;1.00;;;;;;;;;;6303677;22;20364;-86
2023/12/25 02:00:52;;;;;;;1.53;0.70;;;;;;;;;;6306741;22;20372;-87
2023/12/25 02:03:18;;;;;;;1.30;1.20;;;;;;;;;;6280156;22;20416;-87
2023/12/25 02:05:44;;;;;;;0.97;0.80;;;;;;;;;;6282266;22;20360;-87
2023/12/25 02:08:13;;;;;;;1.83;1.10;;;;;;;;;;6280710;22;20384;-86
2023/12/25 02:10:39;;;;;;;1.53;0.63;;;;;;;;;;6279793;22;20380;-86
2023/12/25 02:13:05;;;;;;;0.90;0.80;;;;;;;;;;6280798;22;20407;-86
2023/12/25 02:15:34;;;;;;;1.13;0.80;;;;;;;;;;6279349;22;20377;-87
2023/12/25 02:18:03;;;;;;;1.27;0.87;;;;;;;;;;6278972;22;20414;-86
2023/12/25 02:20:30;;;;;;;0.93;0.83;;;;;;;;;;6281910;22;20380;-88
2023/12/25 02:22:56;;;;;;;1.10;0.77;;;;;;;;;;6281230;22;20930;-87
2023/12/25 02:25:28;;;;;;;1.43;1.20;;;;;;;;;;6282067;22;20403;-86
2023/12/25 02:27:54;;;;;;;1.00;0.80;;;;;;;;;;6307051;22;20863;-85
2023/12/25 02:30:20;;;;;;;0.90;0.70;;;;;;;;;;6308175;22;20447;-86
2023/12/25 02:32:46;;;;;;;1.37;0.70;;;;;;;;;;6280102;22;20446;-86
2023/12/25 02:35:12;;;;;;;2.20;0.70;;;;;;;;;;6281809;22;20459;-86
2023/12/25 02:37:38;;;;;;;1.30;1.20;;;;;;;;;;6283665;22;20387;-86
2023/12/25 02:40:05;;;;;;;0.90;0.70;;;;;;;;;;6307718;22;20816;-86
2023/12/25 02:42:31;;;;;;;2.30;0.70;;;;;;;;;;6309794;22;20934;-86
2023/12/25 02:44:57;;;;;;;1.17;1.00;;;;;;;;;;6281926;22;21015;-87
2023/12/25 02:47:23;;;;;;;0.97;0.80;;;;;;;;;;6306381;22;20353;-88
2023/12/25 02:49:49;;;;;;;1.10;0.70;;;;;;;;;;6283744;22;20376;-87
2023/12/25 02:52:15;;;;;;;1.20;0.70;;;;;;;;;;6306428;22;20376;-86
2023/12/25 02:54:41;;;;;;;0.87;0.87;;;;;;;;;;6282345;22;20388;-85
2023/12/25 02:57:07;;;;;;;1.17;0.93;;;;;;;;;;6281605;22;20384;-85
2023/12/25 02:59:33;;;;;;;1.00;0.90;;;;;;;;;;6307644;22;20391;-86
2023/12/25 03:01:59;;;;;;;0.73;0.67;;;;;;;;;;6308507;22;20434;-85
2023/12/25 03:04:25;;;;;;;2.57;1.10;;;;;;;;;;6284168;22;20400;-86
2023/12/25 03:06:51;;;;;;;1.30;0.87;;;;;;;;;;6282329;22;20369;-86
2023/12/25 03:09:18;;;;;;;1.27;0.80;;;;;;;;;;6282366;22;20901;-86
2023/12/25 03:11:45;;;;;;;0.80;0.70;;;;;;;;;;6281312;22;20433;-86
2023/12/25 03:14:11;;;;;;;0.80;0.80;;;;;;;;;;6281806;22;20384;-85
2023/12/25 03:16:37;;;;;;;0.70;0.70;;;;;;;;;;6281844;22;20379;-86
2023/12/25 03:19:03;;;;;;;1.27;1.10;;;;;;;;;;6281086;22;20380;-86
2023/12/25 03:21:28;;;;;;;2.00;0.70;;;;;;;;;;6307255;22;20423;-86
2023/12/25 03:23:54;;;;;;;1.23;0.97;;;;;;;;;;6281602;22;20383;-85
2023/12/25 03:26:20;;;;;;;1.70;0.70;;;;;;;;;;6280989;22;20400;-85
2023/12/25 03:28:46;;;;;;;1.17;0.80;;;;;;;;;;6280944;22;20376;-86
2023/12/25 03:31:12;;;;;;;3.30;1.03;;;;;;;;;;6281613;22;20383;-86
2023/12/25 03:33:38;;;;;;;0.80;0.70;;;;;;;;;;6305772;22;20360;-85
2023/12/25 03:36:05;;;;;;;1.10;0.80;;;;;;;;;;6280957;22;20712;-87
2023/12/25 03:38:31;;;;;;;1.00;0.90;;;;;;;;;;6305824;22;20367;-84
2023/12/25 03:40:57;;;;;;;0.80;0.60;;;;;;;;;;6282790;22;20823;-85
2023/12/25 03:43:23;;;;;;;0.97;0.70;;;;;;;;;;6281230;22;20420;-86
2023/12/25 03:45:49;;;;;;;1.70;0.80;;;;;;;;;;6281787;22;20510;-87
2023/12/25 03:48:16;;;;;;;1.53;0.70;;;;;;;;;;6281812;22;20385;-86
2023/12/25 03:50:42;;;;;;;1.47;0.80;;;;;;;;;;6306445;22;20990;-85
2023/12/25 03:53:08;;;;;;;0.80;0.70;;;;;;;;;;6281009;22;20444;-86
2023/12/25 03:55:37;;;;;;;0.70;0.67;;;;;;;;;;6281150;22;20782;-85
2023/12/25 03:58:04;;;;;;;0.70;0.60;;;;;;;;;;6307170;22;20417;-85
2023/12/25 04:00:30;;;;;;;1.13;0.70;;;;;;;;;;6281655;22;20408;-86
2023/12/25 04:02:56;;;;;;;1.50;0.83;;;;;;;;;;6307004;22;20441;-85
2023/12/25 04:05:23;;;;;;;1.10;0.80;;;;;;;;;;6282230;22;20372;-85
2023/12/25 04:07:50;;;;;;;0.87;0.87;;;;;;;;;;6281280;22;20385;-85
2023/12/25 04:10:16;;;;;;;2.40;1.03;;;;;;;;;;6280596;22;20379;-86
2023/12/25 04:12:42;;;;;;;0.87;0.80;;;;;;;;;;6281791;22;20384;-85
2023/12/25 04:15:08;;;;;;;0.90;0.70;;;;;;;;;;6280623;22;20929;-85
2023/12/25 04:17:34;;;;;;;1.73;0.80;;;;;;;;;;6306681;22;20388;-85
2023/12/25 04:20:00;;;;;;;2.00;0.80;;;;;;;;;;6279582;22;20402;-86
2023/12/25 04:22:26;;;;;;;1.43;0.90;;;;;;;;;;6307934;22;20888;-86
2023/12/25 04:24:52;;;;;;;1.20;0.70;;;;;;;;;;6280765;22;20388;-86
2023/12/25 04:27:18;;;;;;;0.80;0.70;;;;;;;;;;6282235;22;20380;-87
2023/12/25 04:29:44;;;;;;;1.50;0.70;;;;;;;;;;6280046;22;20373;-86
2023/12/25 04:32:10;;;;;;;0.80;0.70;;;;;;;;;;6282658;22;20399;-86
2023/12/25 04:34:36;;;;;;;0.87;0.73;;;;;;;;;;6280164;22;20372;-85
2023/12/25 04:37:02;;;;;;;1.80;1.00;;;;;;;;;;6282071;22;21138;-86
2023/12/25 04:39:28;;;;;;;0.90;0.80;;;;;;;;;;6279248;22;20418;-86
2023/12/25 04:41:54;;;;;;;2.13;0.80;;;;;;;;;;6280299;22;20759;-86
2023/12/25 04:44:20;;;;;;;0.70;0.67;;;;;;;;;;6281079;22;20379;-86
2023/12/25 04:46:46;;;;;;;2.07;1.10;;;;;;;;;;6305657;22;20395;-87
2023/12/25 04:49:14;;;;;;;0.97;0.87;;;;;;;;;;6279972;22;20403;-86
2023/12/25 04:51:40;;;;;;;1.30;0.70;;;;;;;;;;6279388;22;20891;-87
2023/12/25 04:54:06;;;;;;;0.90;0.80;;;;;;;;;;6280029;22;20384;-86
2023/12/25 04:56:32;;;;;;;1.00;0.73;;;;;;;;;;6280313;22;20368;-86
2023/12/25 04:58:58;;;;;;;0.80;0.70;;;;;;;;;;6281561;22;20461;-87
2023/12/25 05:01:24;;;;;;;0.87;0.70;;;;;;;;;;6282102;22;20389;-84
2023/12/25 05:03:50;;;;;;;1.23;0.80;;;;;;;;;;6281723;22;20376;-86
2023/12/25 05:06:16;;;;;;;2.47;1.07;;;;;;;;;;6281635;22;20927;-87
2023/12/25 05:08:42;;;;;;;0.77;0.60;;;;;;;;;;6282134;22;20708;-89
2023/12/25 05:11:07;;;;;;;1.10;0.90;;;;;;;;;;6282751;22;20386;-86
2023/12/25 05:13:34;;;;;;;0.73;0.70;;;;;;;;;;6283443;22;20385;-86
2023/12/25 05:16:00;;;;;;;1.20;0.70;;;;;;;;;;6281643;22;20380;-86
2023/12/25 05:18:26;;;;;;;1.13;0.90;;;;;;;;;;6308889;22;20773;-87
2023/12/25 05:20:52;;;;;;;1.00;0.70;;;;;;;;;;6306087;22;20396;-87
2023/12/25 05:23:18;;;;;;;1.70;1.00;;;;;;;;;;6282227;22;20507;-86
2023/12/25 05:25:44;;;;;;;1.60;0.90;;;;;;;;;;6283080;22;20384;-86
2023/12/25 05:28:10;;;;;;;0.80;0.60;;;;;;;;;;6283034;22;20385;-86
2023/12/25 05:30:36;;;;;;;0.90;0.70;;;;;;;;;;6280019;22;20376;-86
2023/12/25 05:33:03;;;;;;;1.10;1.00;;;;;;;;;;6305704;22;20371;-87
2023/12/25 05:35:29;;;;;;;1.20;0.80;;;;;;;;;;6279882;22;20441;-87
2023/12/25 05:37:55;;;;;;;1.43;0.70;;;;;;;;;;6282195;22;20387;-87
2023/12/25 05:40:22;;;;;;;1.20;0.70;;;;;;;;;;6282550;22;20381;-86
2023/12/25 05:42:48;;;;;;;1.00;0.70;;;;;;;;;;6283205;22;20427;-86
2023/12/25 05:45:14;;;;;;;0.70;0.60;;;;;;;;;;6283942;22;20843;-87
2023/12/25 05:47:40;;;;;;;1.00;0.77;;;;;;;;;;6281528;22;20379;-86
2023/12/25 05:50:09;;;;;;;1.70;0.93;;;;;;;;;;6280678;22;20375;-85
2023/12/25 05:52:35;;;;;;;0.73;0.67;;;;;;;;;;6280826;22;20411;-89
2023/12/25 05:55:01;;;;;;;0.70;0.70;;;;;;;;;;6281293;22;21000;-87
2023/12/25 05:57:30;;;;;;;1.23;0.80;;;;;;;;;;6279981;22;20485;-86
2023/12/25 05:59:56;;;;;;;0.80;0.67;;;;;;;;;;6279947;22;20911;-87
2023/12/25 06:02:22;;;;;;;0.80;0.70;;;;;;;;;;6280359;22;20466;-86
2023/12/25 06:04:48;;;;;;;0.93;0.80;;;;;;;;;;6281216;22;20381;-86
2023/12/25 06:07:14;;;;;;;1.30;0.70;;;;;;;;;;6279976;22;20369;-86
2023/12/25 06:09:40;;;;;;;0.87;0.80;;;;;;;;;;6281159;22;20372;-86
2023/12/25 06:12:06;;;;;;;1.00;0.80;;;;;;;;;;6306706;22;20382;-86
2023/12/25 06:14:32;;;;;;;3.60;2.13;;;;;;;;;;6283272;22;20372;-82
2023/12/25 06:16:58;;;;;;;1.13;0.80;;;;;;;;;;6281160;22;20377;-86
2023/12/25 06:19:24;;;;;;;1.47;1.03;;;;;;;;;;6282139;22;20372;-86
2023/12/25 06:21:50;;;;;;;1.73;0.80;;;;;;;;;;6306521;22;21090;-86
2023/12/25 06:24:16;;;;;;;1.67;1.30;;;;;;;;;;6281853;22;20376;-84
2023/12/25 06:26:42;;;;;;;1.13;1.00;;;;;;;;;;6280852;22;20938;-86
2023/12/25 06:29:08;;;;;;;1.10;0.80;;;;;;;;;;6306450;22;20455;-86
2023/12/25 06:31:34;;;;;;;0.80;0.73;;;;;;;;;;6280915;22;20385;-86
2023/12/25 06:34:00;;;;;;;3.83;0.70;;;;;;;;;;6306870;22;20391;-87
2023/12/25 06:36:26;;;;;;;3.23;0.80;;;;;;;;;;6282728;22;20388;-86
2023/12/25 06:38:52;;;;;;;0.80;0.73;;;;;;;;;;6280369;22;20379;-88
2023/12/25 06:41:18;;;;;;;1.10;0.87;;;;;;;;;;6281121;22;20935;-86
2023/12/25 06:43:44;;;;;;;1.00;0.80;;;;;;;;;;6280274;22;20372;-87
2023/12/25 06:46:10;;;;;;;2.60;0.90;;;;;;;;;;6309777;22;20364;-86
2023/12/25 06:48:36;;;;;;;0.80;0.80;;;;;;;;;;6279748;22;20372;-86
2023/12/25 06:51:02;;;;;;;1.27;1.00;;;;;;;;;;6281404;22;20369;-87
2023/12/25 06:53:28;;;;;;;0.90;0.80;;;;;;;;;;6279871;22;20399;-86
2023/12/25 06:55:54;;;;;;;1.00;0.90;;;;;;;;;;6281463;22;20376;-88
2023/12/25 06:58:20;;;;;;;0.83;0.77;;;;;;;;;;6280882;22;20368;-86
2023/12/25 07:00:46;;;;;;;0.80;0.67;;;;;;;;;;6281142;22;20387;-87
2023/12/25 07:03:15;;;;;;;1.00;0.90;;;;;;;;;;6304973;22;20864;-87
2023/12/25 07:05:42;;;;;;;1.37;1.27;;;;;;;;;;6307512;22;20365;-87
2023/12/25 07:08:08;;;;;;;1.00;0.80;;;;;;;;;;6282501;22;21296;-87
2023/12/25 07:10:34;;;;;;;3.07;0.90;;;;;;;;;;6280561;22;20523;-87
2023/12/25 07:13:01;;;;;;;1.10;0.80;;;;;;;;;;6306175;22;20365;-87
2023/12/25 07:15:28;;;;;;;1.00;0.80;;;;;;;;;;6280419;22;20376;-88
2023/12/25 07:17:54;;;;;;;0.90;0.80;;;;;;;;;;6281152;22;20381;-88
2023/12/25 07:20:21;;;;;;;1.10;0.90;;;;;;;;;;6305316;22;20397;-88
2023/12/25 07:22:47;;;;;;;1.07;0.90;;;;;;;;;;6281739;22;20446;-88
2023/12/25 07:25:13;;;;;;;1.03;0.87;;;;;;;;;;6280843;22;20451;-87
2023/12/25 07:27:40;;;;;;;1.20;0.80;;;;;;;;;;6306802;22;20357;-88
2023/12/25 07:30:06;;;;;;;1.00;0.80;;;;;;;;;;6279930;22;20406;-89
2023/12/25 07:32:35;;;;;;;1.00;0.80;;;;;;;;;;6279618;22;20847;-88
2023/12/25 07:35:01;;;;;;;1.07;0.80;;;;;;;;;;6279915;22;20851;-88
2023/12/25 07:37:27;;;;;;;2.23;1.10;;;;;;;;;;6305149;22;20376;-88
2023/12/25 07:39:53;;;;;;;0.90;0.77;;;;;;;;;;6306076;22;20365;-88
2023/12/25 07:42:19;;;;;;;1.10;0.80;;;;;;;;;;6280197;22;20431;-88
2023/12/25 07:44:47;;;;;;;1.00;0.73;;;;;;;;;;6279564;22;20479;-89
2023/12/25 07:47:13;;;;;;;1.67;1.53;;;;;;;;;;6280775;22;20427;-87
2023/12/25 07:49:39;;;;;;;1.30;0.87;;;;;;;;;;6305660;22;20379;-87
2023/12/25 07:52:05;;;;;;;0.80;0.70;;;;;;;;;;6281442;22;20376;-89
2023/12/25 07:54:31;;;;;;;1.33;1.23;;;;;;;;;;6279951;22;20379;-88
2023/12/25 07:56:57;;;;;;;0.97;0.80;;;;;;;;;;6280539;22;20755;-87
2023/12/25 07:59:23;;;;;;;1.07;0.83;;;;;;;;;;6279874;22;20384;-88
2023/12/25 08:01:49;;;;;;;3.27;0.90;;;;;;;;;;6307497;22;20444;-87
2023/12/25 08:04:15;;;;;;;1.10;1.00;;;;;;;;;;6279740;22;20894;-88
2023/12/25 08:06:41;;;;;;;0.70;0.70;;;;;;;;;;6307010;22;20349;-88
2023/12/25 08:09:09;;;;;;;0.97;0.70;;;;;;;;;;6283537;22;20412;-89
2023/12/25 08:11:35;;;;;;;1.00;0.90;;;;;;;;;;6280431;22;20385;-89
2023/12/25 08:14:01;;;;;;;1.10;1.00;;;;;;;;;;6280536;22;20503;-88
2023/12/25 08:16:27;;;;;;;1.13;0.90;;;;;;;;;;6282286;22;20434;-90
2023/12/25 08:18:53;;;;;;;1.00;0.90;;;;;;;;;;6281038;22;20380;-87
2023/12/25 08:21:20;;;;;;;1.90;0.87;;;;;;;;;;6282138;22;21001;-88
2023/12/25 08:23:46;;;;;;;1.93;0.80;;;;;;;;;;6308401;22;20368;-88
2023/12/25 08:26:12;;;;;;;0.80;0.60;;;;;;;;;;6283744;22;20465;-88
2023/12/25 08:28:40;;;;;;;0.90;0.60;;;;;;;;;;6283425;22;20377;-89
2023/12/25 08:31:06;;;;;;;1.30;1.20;;;;;;;;;;6284707;22;20396;-88
2023/12/25 08:33:32;;;;;;;0.90;0.90;;;;;;;;;;6284461;22;20383;-87
2023/12/25 08:35:58;;;;;;;4.20;1.17;;;;;;;;;;6285281;22;20379;-89
2023/12/25 08:38:24;;;;;;;0.77;0.77;;;;;;;;;;6284554;22;20372;-88
2023/12/25 08:40:50;;;;;;;1.37;0.70;;;;;;;;;;6310385;22;20824;-88
2023/12/25 08:43:16;;;;;;;1.23;0.90;;;;;;;;;;6282451;22;20450;-88
2023/12/25 08:45:42;;;;;;;1.00;0.90;;;;;;;;;;6284468;22;20365;-88
2023/12/25 08:48:08;;;;;;;1.03;0.80;;;;;;;;;;6284139;22;20372;-87
2023/12/25 08:50:35;;;;;;;1.47;0.83;;;;;;;;;;6283967;22;20451;-89
2023/12/25 08:53:01;;;;;;;0.87;0.80;;;;;;;;;;6283746;22;20379;-88
2023/12/25 08:55:28;;;;;;;0.83;0.77;;;;;;;;;;6283820;22;20380;-88
2023/12/25 08:57:53;;;;;;;1.57;0.87;;;;;;;;;;6283322;22;21095;-87
2023/12/25 09:00:20;;;;;;;2.23;0.90;;;;;;;;;;6284031;22;20381;-90
2023/12/25 09:02:46;;;;;;;0.93;0.70;;;;;;;;;;6283780;22;20438;-89
2023/12/25 09:05:12;;;;;;;0.87;0.73;;;;;;;;;;6283938;22;20784;-89
2023/12/25 09:07:38;;;;;;;0.80;0.80;;;;;;;;;;6283243;22;20388;-88
2023/12/25 09:10:06;;;;;;;1.10;0.97;;;;;;;;;;6307950;22;20367;-88
2023/12/25 09:12:32;;;;;;;0.70;0.70;;;;;;;;;;6309733;22;20403;-88
2023/12/25 09:14:58;;;;;;;1.57;0.87;;;;;;;;;;6283426;22;20388;-88
2023/12/25 09:17:24;;;;;;;1.40;1.13;;;;;;;;;;6283308;22;20384;-88
2023/12/25 09:19:50;;;;;;;1.07;0.73;;;;;;;;;;6282986;22;20477;-88
2023/12/25 09:22:17;;;;;;;1.93;1.13;;;;;;;;;;6307797;22;20502;-88
2023/12/25 09:24:44;;;;;;;1.80;1.03;;;;;;;;;;6281517;22;20396;-89
2023/12/25 09:27:10;;;;;;;1.20;0.90;;;;;;;;;;6307209;22;20352;-88
2023/12/25 09:29:36;;;;;;;1.17;0.97;;;;;;;;;;6281209;22;20430;-88
2023/12/25 09:32:03;;;;;;;0.80;0.70;;;;;;;;;;6308877;22;20369;-89
2023/12/25 09:34:29;;;;;;;1.43;0.70;;;;;;;;;;6307424;22;20742;-89
2023/12/25 09:36:56;;;;;;;1.10;0.80;;;;;;;;;;6282420;22;20376;-89
2023/12/25 09:39:22;;;;;;;0.90;0.80;;;;;;;;;;6281354;22;20387;-89
2023/12/25 09:41:48;;;;;;;0.80;0.60;;;;;;;;;;6281834;22;20420;-87
2023/12/25 09:44:14;;;;;;;0.93;0.80;;;;;;;;;;6281285;22;20387;-89
2023/12/25 09:46:40;;;;;;;0.70;0.70;;;;;;;;;;6285161;22;20432;-87
2023/12/25 09:49:06;;;;;;;0.83;0.70;;;;;;;;;;6282995;22;20468;-90
2023/12/25 09:51:34;;;;;;;1.10;0.90;;;;;;;;;;6295948;22;20898;-90
2023/12/25 09:54:01;;;;;;;0.80;0.70;;;;;;;;;;6284449;22;20438;-88
2023/12/25 09:56:28;;;;;;;1.30;0.70;;;;;;;;;;6308475;22;20372;-89
2023/12/25 09:58:53;;;;;;;1.10;0.90;;;;;;;;;;6284742;22;20365;-89
2023/12/25 10:01:20;;;;;;;0.80;0.60;;;;;;;;;;6281995;22;20384;-88
2023/12/25 10:03:46;;;;;;;0.87;0.80;;;;;;;;;;6284083;22;20376;-89
2023/12/25 10:06:12;;;;;;;0.70;0.63;;;;;;;;;;6284074;22;20381;-87
2023/12/25 10:08:38;;;;;;;1.00;0.73;;;;;;;;;;6308615;22;20364;-89
2023/12/25 10:11:04;;;;;;;0.80;0.70;;;;;;;;;;6283724;22;20860;-90
2023/12/25 10:13:31;;;;;;;1.47;0.80;;;;;;;;;;6284865;22;20380;-89
2023/12/25 10:15:57;;;;;;;0.87;0.70;;;;;;;;;;6284531;22;20380;-88
2023/12/25 10:18:23;;;;;;;1.10;0.83;;;;;;;;;;6283284;22;20457;-88
2023/12/25 10:20:58;;;;;;;1.23;0.60;;;;;;;;;;6283325;22;20814;-90
2023/12/25 10:23:30;;;;;;;1.00;0.70;;;;;;;;;;6284717;22;20660;-88
2023/12/25 10:25:58;;;;;;;1.20;0.77;;;;;;;;;;6281023;22;20826;-89
2023/12/25 10:28:28;;;;;;;1.20;0.90;;;;;;;;;;6282901;22;20384;-89
2023/12/25 10:31:03;;;;;;;0.90;0.70;;;;;;;;;;6281551;22;20404;-89
2023/12/25 10:33:29;;;;;;;3.23;1.80;;;;;;;;;;6308710;22;20380;-88
2023/12/25 10:36:05;;;;;;;1.00;0.70;;;;;;;;;;6279220;22;20719;-89
2023/12/25 10:38:34;;;;;;;1.33;0.70;;;;;;;;;;6306899;22;20376;-89
2023/12/25 10:41:25;;;;;;;0.83;0.83;;;;;;;;;;6306135;22;21102;-88
2023/12/25 10:43:52;;;;;;;0.87;0.63;;;;;;;;;;6295169;22;20392;-88
2023/12/25 10:46:25;;;;;;;0.90;0.50;;;;;;;;;;6281015;22;21069;-89
2023/12/25 10:48:52;;;;;;;0.80;0.60;;;;;;;;;;6281338;22;20373;-89
2023/12/25 10:51:29;;;;;;;0.80;0.80;;;;;;;;;;6279287;22;20822;-89
2023/12/25 10:53:59;;;;;;;0.70;0.60;;;;;;;;;;6279668;22;20694;-88
2023/12/25 10:56:25;;;;;;;0.80;0.70;;;;;;;;;;6280099;22;20380;-89
2023/12/25 10:58:51;;;;;;;0.70;0.60;;;;;;;;;;6305555;22;20364;-89
2023/12/25 11:01:24;;;;;;;0.97;0.50;;;;;;;;;;6280150;22;20455;-88
2023/12/25 11:03:50;;;;;;;1.10;0.70;;;;;;;;;;6282163;22;20384;-90
2023/12/25 11:06:16;;;;;;;0.60;0.50;;;;;;;;;;6280825;22;20368;-89
2023/12/25 11:08:43;;;;;;;0.80;0.53;;;;;;;;;;6279593;22;20380;-91
2023/12/25 11:11:09;;;;;;;1.53;0.70;;;;;;;;;;6282653;22;20372;-90
2023/12/25 11:13:35;;;;;;;0.80;0.60;;;;;;;;;;6281712;22;20840;-92
2023/12/25 11:16:01;;;;;;;0.60;0.60;;;;;;;;;;6281168;22;20410;-90
2023/12/25 11:18:27;;;;;;;0.90;0.70;;;;;;;;;;6281472;22;20380;-91
2023/12/25 11:21:06;;;;;;;0.80;0.60;;;;;;;;;;6282452;22;20829;-91
2023/12/25 11:23:40;;;;;;;0.70;0.50;;;;;;;;;;6281861;22;20431;-91
2023/12/25 11:26:06;;;;;;;0.90;0.70;;;;;;;;;;6283328;22;20956;-91
2023/12/25 11:28:35;;;;;;;1.70;1.30;;;;;;;;;;6281507;22;20395;-89
2023/12/25 11:31:01;;;;;;;1.43;0.70;;;;;;;;;;6307024;22;20369;-90
2023/12/25 11:33:40;;;;;;;1.33;0.83;;;;;;;;;;6282002;22;20372;-90
2023/12/25 11:36:11;;;;;;;1.17;0.73;;;;;;;;;;6309505;22;20411;-90
2023/12/25 11:38:37;;;;;;;0.80;0.60;;;;;;;;;;6280867;22;20361;-91
2023/12/25 11:41:03;;;;;;;0.90;0.60;;;;;;;;;;6283873;22;20379;-90
2023/12/25 11:43:30;;;;;;;0.83;0.63;;;;;;;;;;6280573;22;20461;-91
2023/12/25 11:45:56;;;;;;;0.70;0.60;;;;;;;;;;6282404;22;20380;-90
2023/12/25 11:48:23;;;;;;;0.60;0.60;;;;;;;;;;6280033;22;20387;-91
2023/12/25 11:50:49;;;;;;;1.73;0.63;;;;;;;;;;6282184;22;20384;-91
2023/12/25 11:53:34;;;;;;;1.20;0.70;;;;;;;;;;6276334;22;20391;-90
2023/12/25 11:56:00;;;;;;;0.83;0.67;;;;;;;;;;6305886;22;20375;-91
2023/12/25 11:58:26;;;;;;;0.93;0.70;;;;;;;;;;6279958;22;20919;-90
2023/12/25 12:00:52;;;;;;;0.80;0.60;;;;;;;;;;6278758;22;20407;-92
2023/12/25 12:03:19;;;;;;;0.80;0.70;;;;;;;;;;6278780;22;20444;-89
2023/12/25 12:05:45;;;;;;;0.70;0.57;;;;;;;;;;6282820;22;20456;-91
2023/12/25 12:08:11;;;;;;;0.70;0.60;;;;;;;;;;6279528;22;20435;-91
2023/12/25 12:10:37;;;;;;;0.60;0.50;;;;;;;;;;6278934;22;20832;-91
2023/12/25 12:13:03;;;;;;;1.20;0.80;;;;;;;;;;6280119;22;20396;-91
2023/12/25 12:15:29;;;;;;;0.70;0.57;;;;;;;;;;6282316;22;20384;-89
2023/12/25 12:18:02;;;;;;;1.83;0.87;;;;;;;;;;6283755;22;20391;-89
2023/12/25 12:20:28;;;;;;;1.00;0.80;;;;;;;;;;6306709;22;20372;-91
2023/12/25 12:22:54;;;;;;;1.13;0.80;;;;;;;;;;6280111;22;20420;-90
2023/12/25 12:25:21;;;;;;;0.80;0.70;;;;;;;;;;6282939;22;20403;-91
2023/12/25 12:27:47;;;;;;;0.90;0.70;;;;;;;;;;6308376;22;20389;-90
2023/12/25 12:30:13;;;;;;;0.70;0.60;;;;;;;;;;6282288;22;20376;-90
2023/12/25 12:32:39;;;;;;;0.70;0.53;;;;;;;;;;6282428;22;20589;-90
2023/12/25 12:35:09;;;;;;;1.23;0.70;;;;;;;;;;6282159;22;20408;-91
2023/12/25 12:37:35;;;;;;;0.70;0.60;;;;;;;;;;6279031;22;20378;-90
2023/12/25 12:40:04;;;;;;;0.70;0.50;;;;;;;;;;6280834;22;20380;-90
2023/12/25 12:42:34;;;;;;;0.70;0.60;;;;;;;;;;6281375;22;20432;-89
2023/12/25 12:45:03;;;;;;;0.70;0.60;;;;;;;;;;6282458;22;20941;-90
2023/12/25 12:47:33;;;;;;;0.67;0.50;;;;;;;;;;6281484;22;20372;-91
2023/12/25 12:50:01;;;;;;;1.00;0.60;;;;;;;;;;6283293;22;20392;-92
2023/12/25 12:52:27;;;;;;;4.93;1.90;;;;;;;;;;6282883;22;20453;-89
2023/12/25 12:54:53;;;;;;;0.70;0.63;;;;;;;;;;6305675;22;20364;-89
2023/12/25 12:57:19;;;;;;;1.30;0.77;;;;;;;;;;6280889;22;20474;-90
2023/12/25 12:59:46;;;;;;;1.00;0.63;;;;;;;;;;6282801;22;20380;-90
2023/12/25 13:02:12;;;;;;;2.50;0.70;;;;;;;;;;6284185;22;20420;-90
2023/12/25 13:04:39;;;;;;;0.97;0.60;;;;;;;;;;6283794;22;20416;-89
2023/12/25 13:07:06;;;;;;;1.57;0.60;;;;;;;;;;6283137;22;20373;-90
2023/12/25 13:09:32;;;;;;;0.90;0.60;;;;;;;;;;6282316;22;20373;-88
2023/12/25 13:11:58;;;;;;;0.60;0.50;;;;;;;;;;6279704;22;20392;-90
2023/12/25 13:14:24;;;;;;;0.90;0.63;;;;;;;;;;6281893;22;20380;-91
2023/12/25 13:16:50;;;;;;;0.80;0.60;;;;;;;;;;6280577;22;20376;-89
2023/12/25 13:19:17;;;;;;;0.83;0.70;;;;;;;;;;6282526;22;20380;-90
2023/12/25 13:21:43;;;;;;;0.80;0.63;;;;;;;;;;6283675;22;20879;-89
2023/12/25 13:24:11;;;;;;;0.70;0.50;;;;;;;;;;6283179;22;20364;-89
2023/12/25 13:26:38;;;;;;;0.80;0.60;;;;;;;;;;6284068;22;20843;-90
2023/12/25 13:29:05;;;;;;;4.13;2.30;;;;;;;;;;6284725;22;20372;-90
2023/12/25 13:31:31;;;;;;;4.03;1.97;;;;;;;;;;6283854;22;20372;-90
2023/12/25 13:33:57;;;;;;;1.13;0.73;;;;;;;;;;6282555;22;20368;-89
2023/12/25 13:36:23;;;;;;;1.53;1.10;;;;;;;;;;6282956;22;20431;-88
2023/12/25 13:38:52;;;;;;;0.80;0.70;;;;;;;;;;6283924;22;20472;-89
2023/12/25 13:41:18;;;;;;;0.80;0.63;;;;;;;;;;6287605;22;20420;-89
2023/12/25 13:43:44;;;;;;;1.00;0.80;;;;;;;;;;6285413;22;20986;-89
2023/12/25 13:46:10;;;;;;;0.70;0.63;;;;;;;;;;6309804;22;20373;-91
2023/12/25 13:48:36;;;;;;;0.70;0.50;;;;;;;;;;6283676;22;20377;-88
2023/12/25 13:51:02;;;;;;;0.70;0.60;;;;;;;;;;6284359;22;20422;-88
2023/12/25 13:53:28;;;;;;;0.80;0.67;;;;;;;;;;6310279;22;20388;-90
2023/12/25 13:55:55;;;;;;;1.60;0.60;;;;;;;;;;6283612;22;20393;-90
2023/12/25 13:58:21;;;;;;;1.23;0.80;;;;;;;;;;6282281;22;20683;-89
2023/12/25 14:00:47;;;;;;;1.47;0.90;;;;;;;;;;6281557;22;20377;-89
2023/12/25 14:03:13;;;;;;;0.70;0.60;;;;;;;;;;6282017;22;20427;-89
2023/12/25 14:05:39;;;;;;;0.90;0.70;;;;;;;;;;6282468;22;20716;-90
2023/12/25 14:08:05;;;;;;;1.10;1.00;;;;;;;;;;6282103;22;20377;-88
2023/12/25 14:10:33;;;;;;;0.87;0.70;;;;;;;;;;6282035;22;20391;-89
2023/12/25 14:12:59;;;;;;;2.20;1.30;;;;;;;;;;6282474;22;20387;-89
2023/12/25 14:15:49;;;;;;;1.60;1.13;;;;;;;;;;6249462;22;20377;-89
2023/12/25 14:18:15;;;;;;;1.53;0.60;;;;;;;;;;6250476;22;20366;-91
2023/12/25 14:20:41;;;;;;;0.80;0.77;;;;;;;;;;6223905;22;20381;-90
2023/12/25 14:23:07;;;;;;;1.00;0.80;;;;;;;;;;6223146;22;20420;-89
2023/12/25 14:25:33;;;;;;;0.80;0.77;;;;;;;;;;6223400;22;20424;-90
2023/12/25 14:27:59;;;;;;;0.70;0.70;;;;;;;;;;6225613;22;20381;-90
2023/12/25 14:30:25;;;;;;;2.40;0.60;;;;;;;;;;6225054;22;20388;-90
2023/12/25 14:32:51;;;;;;;0.70;0.60;;;;;;;;;;6226717;22;20377;-89
2023/12/25 14:35:17;;;;;;;1.90;0.70;;;;;;;;;;6223698;22;20847;-90
2023/12/25 14:37:43;;;;;;;1.00;0.63;;;;;;;;;;6225597;22;20377;-90
2023/12/25 14:40:10;;;;;;;0.90;0.80;;;;;;;;;;6224189;22;20385;-89
2023/12/25 14:42:36;;;;;;;0.77;0.60;;;;;;;;;;6224980;22;20429;-90